createdAt,value
2022-11-06T00:00:07.331Z,12.23
2022-11-06T00:03:29.021Z,11.83
2022-11-06T00:06:52.006Z,10.50
2022-11-06T00:10:13.306Z,11.23
2022-11-06T00:13:34.562Z,9.67
2022-11-06T00:16:56.239Z,9.40
2022-11-06T00:20:17.860Z,9.20
2022-11-06T00:23:41.586Z,8.10
2022-11-06T00:27:02.850Z,8.17
2022-11-06T00:30:24.657Z,7.23
2022-11-06T00:33:46.334Z,7.20
2022-11-06T00:37:07.554Z,7.27
2022-11-06T00:40:30.345Z,6.60
2022-11-06T00:43:53.858Z,6.43
2022-11-06T00:47:15.243Z,7.20
2022-11-06T00:50:36.531Z,7.17
2022-11-06T00:53:59.241Z,7.67
2022-11-06T00:57:22.437Z,7.53
2022-11-06T01:00:43.984Z,7.27
2022-11-06T01:04:06.954Z,7.63
2022-11-06T01:07:28.515Z,7.63
2022-11-06T01:10:49.743Z,7.50
2022-11-06T01:14:14.922Z,8.07
2022-11-06T01:17:36.914Z,7.33
2022-11-06T01:20:58.522Z,7.20
2022-11-06T01:24:22.000Z,7.17
2022-11-06T01:27:43.721Z,7.57
2022-11-06T01:31:07.563Z,7.37
2022-11-06T01:34:29.215Z,7.50
2022-11-06T01:37:50.470Z,7.20
2022-11-06T01:41:14.112Z,7.87
2022-11-06T01:45:12.532Z,6.53
2022-11-06T01:48:35.666Z,5.87
2022-11-06T01:52:02.021Z,6.33
2022-11-06T01:55:27.179Z,7.30
2022-11-06T01:58:51.336Z,6.70
2022-11-06T02:02:15.379Z,8.03
2022-11-06T02:05:38.320Z,12.50
2022-11-06T02:09:00.213Z,11.43
2022-11-06T02:12:34.315Z,13.37
2022-11-06T02:16:05.128Z,13.27
2022-11-06T02:19:46.949Z,13.27
2022-11-06T02:23:32.722Z,13.10
2022-11-06T02:27:05.111Z,11.77
2022-11-06T02:30:26.466Z,11.63
2022-11-06T02:33:52.748Z,10.77
2022-11-06T02:37:17.744Z,9.57
2022-11-06T02:40:43.649Z,8.67
2022-11-06T02:44:09.853Z,8.00
2022-11-06T02:47:34.680Z,7.80
2022-11-06T02:51:00.082Z,8.07
2022-11-06T02:54:24.816Z,7.23
2022-11-06T02:57:52.739Z,6.83
2022-11-06T03:01:23.509Z,7.03
2022-11-06T03:04:50.780Z,6.00
2022-11-06T03:08:19.516Z,5.83
2022-11-06T03:11:40.707Z,6.80
2022-11-06T03:15:11.906Z,6.37
2022-11-06T03:18:42.501Z,6.43
2022-11-06T03:22:09.864Z,7.33
2022-11-06T03:25:42.677Z,6.60
2022-11-06T03:29:11.806Z,6.17
2022-11-06T03:32:37.091Z,6.67
2022-11-06T03:36:05.554Z,6.10
2022-11-06T03:39:31.841Z,6.33
2022-11-06T03:42:57.605Z,6.63
2022-11-06T03:46:25.062Z,6.27
2022-11-06T03:49:53.286Z,6.10
2022-11-06T03:53:22.167Z,6.40
2022-11-06T03:56:49.302Z,7.10
2022-11-06T04:00:12.247Z,6.87
2022-11-06T04:03:36.869Z,7.00
2022-11-06T04:07:04.088Z,6.43
2022-11-06T04:10:45.022Z,6.73
2022-11-06T04:14:08.213Z,6.37
2022-11-06T04:17:30.997Z,7.07
2022-11-06T04:21:18.421Z,6.40
2022-11-06T04:25:06.472Z,6.50
2022-11-06T04:28:37.893Z,7.10
2022-11-06T04:32:07.184Z,7.13
2022-11-06T04:35:35.574Z,7.23
2022-11-06T04:39:06.096Z,8.50
2022-11-06T04:42:33.747Z,7.20
2022-11-06T04:45:59.547Z,6.40
2022-11-06T04:49:22.617Z,7.07
2022-11-06T04:52:46.192Z,7.30
2022-11-06T04:56:10.977Z,7.17
2022-11-06T04:59:36.374Z,6.73
2022-11-06T05:02:59.566Z,7.00
2022-11-06T05:06:23.545Z,6.67
2022-11-06T05:09:48.628Z,6.97
2022-11-06T05:13:11.057Z,6.83
2022-11-06T05:16:32.719Z,6.67
2022-11-06T05:19:55.479Z,7.00
2022-11-06T05:23:17.491Z,7.60
2022-11-06T05:26:39.239Z,7.10
2022-11-06T05:30:00.545Z,6.87
2022-11-06T05:33:22.124Z,6.70
2022-11-06T05:36:44.659Z,7.00
2022-11-06T05:40:08.453Z,7.17
2022-11-06T05:43:29.814Z,6.53
2022-11-06T05:46:51.305Z,7.10
2022-11-06T05:50:12.894Z,7.00
2022-11-06T05:53:37.820Z,6.77
2022-11-06T05:56:59.433Z,7.30
2022-11-06T06:00:21.371Z,6.50
2022-11-06T06:03:43.064Z,7.27
2022-11-06T06:07:04.918Z,7.77
2022-11-06T06:10:27.555Z,7.67
2022-11-06T06:13:49.391Z,8.43
2022-11-06T06:17:11.023Z,7.43
2022-11-06T06:20:32.533Z,7.63
2022-11-06T06:23:54.169Z,9.00
2022-11-06T06:27:17.223Z,7.90
2022-11-06T06:30:38.985Z,7.57
2022-11-06T06:34:00.491Z,6.80
2022-11-06T06:37:22.162Z,7.10
2022-11-06T06:40:50.974Z,7.93
2022-11-06T06:44:14.287Z,7.47
2022-11-06T06:47:37.089Z,7.10
2022-11-06T06:50:59.085Z,7.00
2022-11-06T06:54:24.536Z,6.80
2022-11-06T06:57:46.825Z,7.23
2022-11-06T07:01:10.831Z,8.43
2022-11-06T07:04:33.177Z,7.37
2022-11-06T07:07:54.945Z,7.57
2022-11-06T07:11:21.784Z,7.90
2022-11-06T07:14:47.655Z,6.77
2022-11-06T07:18:12.144Z,7.20
2022-11-06T07:21:34.436Z,7.10
2022-11-06T07:25:01.760Z,7.17
2022-11-06T07:28:23.961Z,7.03
2022-11-06T07:31:54.511Z,7.07
2022-11-06T07:35:17.463Z,6.83
2022-11-06T07:38:40.661Z,6.60
2022-11-06T07:42:01.778Z,7.10
2022-11-06T07:45:29.355Z,6.90
2022-11-06T07:48:51.178Z,7.43
2022-11-06T07:52:17.314Z,6.90
2022-11-06T07:55:42.424Z,6.30
2022-11-06T07:59:04.661Z,6.83
2022-11-06T08:02:26.420Z,7.67
2022-11-06T08:05:48.790Z,6.73
2022-11-06T08:09:32.255Z,6.50
2022-11-06T08:12:53.785Z,6.77
2022-11-06T08:16:16.070Z,6.60
2022-11-06T08:19:37.656Z,7.57
2022-11-06T08:23:11.019Z,7.37
2022-11-06T08:26:34.371Z,7.13
2022-11-06T08:29:55.542Z,6.93
2022-11-06T08:33:16.695Z,7.40
2022-11-06T08:36:40.561Z,6.97
2022-11-06T08:40:02.217Z,7.10
2022-11-06T08:43:31.556Z,7.47
2022-11-06T08:46:53.018Z,7.20
2022-11-06T08:50:14.660Z,7.33
2022-11-06T08:53:36.294Z,7.37
2022-11-06T08:57:00.156Z,6.60
2022-11-06T09:00:26.773Z,7.43
2022-11-06T09:04:04.633Z,7.63
2022-11-06T09:07:27.944Z,7.13
2022-11-06T09:14:40.423Z,6.53
2022-11-06T09:18:07.745Z,6.73
2022-11-06T09:21:32.750Z,6.50
2022-11-06T09:25:03.828Z,6.77
2022-11-06T09:28:25.771Z,7.37
2022-11-06T09:32:12.689Z,7.63
2022-11-06T09:35:38.123Z,7.53
2022-11-06T09:39:13.505Z,6.73
2022-11-06T09:42:48.141Z,6.90
2022-11-06T09:46:27.125Z,6.97
2022-11-06T09:49:52.915Z,6.60
2022-11-06T09:53:20.768Z,7.30
2022-11-06T09:56:43.379Z,7.07
2022-11-06T10:00:08.130Z,6.60
2022-11-06T10:03:38.181Z,6.80
2022-11-06T10:07:41.965Z,6.73
2022-11-06T10:10:58.920Z,6.63
2022-11-06T10:14:34.424Z,8.33
2022-11-06T10:18:05.984Z,6.83
2022-11-06T10:21:38.104Z,6.30
2022-11-06T10:25:10.899Z,6.50
2022-11-06T10:29:03.960Z,6.17
2022-11-06T10:32:54.024Z,5.97
2022-11-06T10:36:19.175Z,6.90
2022-11-06T10:39:47.642Z,6.30
2022-11-06T10:43:19.031Z,6.30
2022-11-06T10:46:52.769Z,6.20
2022-11-06T10:50:21.680Z,5.90
2022-11-06T10:53:55.617Z,6.40
2022-11-06T10:57:31.899Z,6.50
2022-11-06T11:01:08.016Z,5.50
2022-11-06T11:04:33.743Z,6.20
2022-11-06T11:07:55.335Z,5.23
2022-11-06T11:11:50.463Z,6.40
2022-11-06T11:15:22.166Z,6.50
2022-11-06T11:18:54.120Z,5.80
2022-11-06T11:22:32.968Z,5.88
2022-11-06T11:26:02.802Z,5.83
2022-11-06T11:29:27.498Z,5.13
2022-11-06T11:32:49.346Z,5.43
2022-11-06T11:36:11.593Z,4.87
2022-11-06T11:39:36.527Z,5.50
2022-11-06T11:43:22.457Z,5.67
2022-11-06T11:46:52.996Z,5.10
2022-11-06T11:50:29.359Z,6.40
2022-11-06T11:53:51.471Z,5.05
2022-11-06T11:57:28.162Z,4.72
2022-11-06T12:00:56.047Z,4.75
2022-11-06T12:04:23.717Z,4.78
2022-11-06T12:07:49.862Z,4.75
2022-11-06T12:11:16.432Z,4.80
2022-11-06T12:14:40.532Z,4.78
2022-11-06T12:18:05.642Z,4.60
2022-11-06T12:21:31.656Z,4.38
2022-11-06T12:25:01.803Z,4.50
2022-11-06T12:28:39.336Z,4.57
2022-11-06T12:32:09.930Z,4.57
2022-11-06T12:35:38.053Z,4.60
2022-11-06T12:39:13.055Z,4.68
2022-11-06T12:43:13.172Z,4.65
2022-11-06T12:46:45.739Z,4.47
2022-11-06T12:50:39.216Z,4.38
2022-11-06T12:54:15.817Z,3.83
2022-11-06T12:57:53.608Z,4.30
2022-11-06T13:01:27.821Z,3.75
2022-11-06T13:04:56.515Z,3.80
2022-11-06T13:08:32.263Z,4.15
2022-11-06T13:12:02.707Z,3.78
2022-11-06T13:15:33.805Z,3.78
2022-11-06T13:19:05.731Z,3.65
2022-11-06T13:22:31.229Z,3.63
2022-11-06T13:25:58.458Z,3.88
2022-11-06T13:29:23.694Z,3.30
2022-11-06T13:32:53.613Z,3.70
2022-11-06T13:36:18.464Z,2.83
2022-11-06T13:39:45.516Z,3.17
2022-11-06T13:43:12.354Z,3.30
2022-11-06T13:46:40.273Z,3.22
2022-11-06T13:50:12.411Z,2.65
2022-11-06T13:53:43.827Z,3.65
2022-11-06T13:57:50.757Z,2.58
2022-11-06T14:01:29.848Z,2.90
2022-11-06T14:05:21.921Z,2.63
2022-11-06T14:08:47.127Z,3.00
2022-11-06T14:12:16.349Z,3.05
2022-11-06T14:15:41.736Z,3.05
2022-11-06T14:19:06.772Z,3.00
2022-11-06T14:22:30.627Z,2.78
2022-11-06T14:26:05.091Z,3.10
2022-11-06T14:30:02.186Z,2.72
2022-11-06T14:33:59.170Z,3.38
2022-11-06T14:37:47.789Z,3.85
2022-11-06T14:41:44.767Z,3.05
2022-11-06T14:45:14.425Z,2.95
2022-11-06T14:48:42.149Z,3.08
2022-11-06T14:52:06.982Z,3.15
2022-11-06T14:55:33.027Z,3.00
2022-11-06T14:58:57.307Z,3.40
2022-11-06T15:02:25.174Z,2.80
2022-11-06T15:10:57.033Z,3.75
2022-11-06T15:15:02.613Z,3.97
2022-11-06T15:18:32.830Z,5.03
2022-11-06T15:21:58.974Z,6.28
2022-11-06T15:25:24.327Z,6.70
2022-11-06T15:28:49.876Z,6.43
2022-11-06T15:32:14.727Z,6.50
2022-11-06T15:35:37.486Z,6.47
2022-11-06T15:38:59.025Z,7.28
2022-11-06T15:42:23.562Z,6.95
2022-11-06T15:45:44.956Z,9.68
2022-11-06T15:49:09.078Z,6.90
2022-11-06T15:52:32.087Z,6.60
2022-11-06T15:55:59.059Z,7.88
2022-11-06T15:59:20.996Z,6.90
2022-11-06T16:02:54.148Z,7.17
2022-11-06T16:06:16.442Z,7.90
2022-11-06T16:09:42.813Z,7.77
2022-11-06T16:13:05.276Z,6.70
2022-11-06T16:16:35.698Z,6.53
2022-11-06T16:20:00.697Z,6.20
2022-11-06T16:23:33.594Z,6.07
2022-11-06T16:27:06.494Z,5.70
2022-11-06T16:30:28.376Z,5.13
2022-11-06T16:33:56.505Z,5.00
2022-11-06T16:37:45.354Z,5.03
2022-11-06T16:41:07.794Z,5.40
2022-11-06T16:44:45.911Z,6.37
2022-11-06T16:48:26.765Z,5.23
2022-11-06T16:51:48.426Z,5.87
2022-11-06T16:55:26.681Z,4.90
2022-11-06T16:58:53.361Z,4.30
2022-11-06T17:02:25.133Z,4.70
2022-11-06T17:05:53.850Z,5.30
2022-11-06T17:09:31.277Z,5.03
2022-11-06T17:12:52.763Z,5.70
2022-11-06T17:16:16.914Z,5.37
2022-11-06T17:19:39.765Z,5.83
2022-11-06T17:23:01.155Z,4.90
2022-11-06T17:26:25.834Z,4.17
2022-11-06T17:30:29.801Z,3.93
2022-11-06T17:34:26.616Z,4.07
2022-11-06T17:38:18.967Z,4.70
2022-11-06T17:42:33.584Z,4.13
2022-11-06T17:45:59.269Z,3.47
2022-11-06T17:53:56.141Z,4.20
2022-11-06T17:58:01.132Z,3.70
2022-11-06T18:01:34.302Z,3.83
2022-11-06T18:05:13.661Z,4.50
2022-11-06T18:09:00.500Z,4.73
2022-11-06T18:12:27.565Z,5.40
2022-11-06T18:15:52.787Z,5.27
2022-11-06T18:19:17.523Z,5.23
2022-11-06T18:22:58.265Z,5.30
2022-11-06T18:26:26.724Z,4.73
2022-11-06T18:29:50.591Z,4.50
2022-11-06T18:33:13.645Z,4.40
2022-11-06T18:37:02.303Z,4.27
2022-11-06T18:40:25.957Z,4.60
2022-11-06T18:43:56.361Z,4.57
2022-11-06T18:47:27.786Z,5.20
2022-11-06T18:51:08.071Z,4.50
2022-11-06T18:54:31.815Z,4.70
2022-11-06T18:58:02.197Z,4.73
2022-11-06T19:01:34.672Z,5.53
2022-11-06T19:04:57.695Z,4.77
2022-11-06T19:08:48.512Z,4.67
2022-11-06T19:12:13.030Z,4.90
2022-11-06T19:15:55.207Z,5.03
2022-11-06T19:19:37.776Z,4.73
2022-11-06T19:27:57.078Z,5.23
2022-11-06T19:31:42.931Z,5.23
2022-11-06T19:35:23.427Z,5.50
2022-11-06T19:39:23.202Z,5.27
2022-11-06T19:42:58.475Z,6.03
2022-11-06T19:46:29.541Z,5.83
2022-11-06T19:49:55.564Z,7.60
2022-11-06T19:53:18.766Z,6.77
2022-11-06T19:57:27.322Z,6.60
2022-11-06T20:00:23.186Z,6.60
2022-11-06T20:03:44.993Z,6.33
2022-11-06T20:07:08.870Z,6.43
2022-11-06T20:10:30.302Z,6.80
2022-11-06T20:13:53.666Z,6.97
2022-11-06T20:17:18.101Z,6.90
2022-11-06T20:20:39.880Z,6.87
2022-11-06T20:24:01.670Z,7.10
2022-11-06T20:27:23.118Z,7.40
2022-11-06T20:30:46.059Z,7.73
2022-11-06T20:34:07.841Z,7.57
2022-11-06T20:37:29.960Z,7.63
2022-11-06T20:40:55.911Z,7.80
2022-11-06T20:44:17.467Z,7.93
2022-11-06T20:47:40.559Z,7.67
2022-11-06T20:51:05.432Z,7.37
2022-11-06T20:54:26.874Z,8.03
2022-11-06T20:57:48.924Z,7.60
2022-11-06T21:01:12.871Z,7.90
2022-11-06T21:04:36.035Z,7.63
2022-11-06T21:07:58.382Z,7.83
2022-11-06T21:11:22.637Z,8.03
2022-11-06T21:14:44.182Z,8.00
2022-11-06T21:18:06.113Z,8.70
2022-11-06T21:21:33.082Z,8.77
2022-11-06T21:24:54.475Z,8.97
2022-11-06T21:28:15.921Z,8.63
2022-11-06T21:31:41.376Z,9.00
2022-11-06T21:35:07.261Z,9.60
2022-11-06T21:38:29.997Z,8.33
2022-11-06T21:41:51.264Z,8.67
2022-11-06T21:45:14.945Z,9.30
2022-11-06T21:48:52.422Z,9.27
2022-11-06T21:52:31.600Z,9.90
2022-11-06T21:56:00.184Z,9.37
2022-11-06T21:59:26.009Z,9.90
2022-11-06T22:02:47.528Z,9.70
2022-11-06T22:06:11.067Z,9.33
2022-11-06T22:09:32.780Z,9.27
2022-11-06T22:12:55.418Z,9.90
2022-11-06T22:16:20.412Z,10.10
2022-11-06T22:19:42.216Z,10.27
2022-11-06T22:23:03.512Z,9.70
2022-11-06T22:26:26.755Z,9.53
2022-11-06T22:29:49.734Z,9.33
2022-11-06T22:33:11.503Z,10.33
2022-11-06T22:36:33.449Z,10.43
2022-11-06T22:39:55.112Z,10.60
2022-11-06T22:43:16.533Z,9.57
2022-11-06T22:46:39.863Z,9.30
2022-11-06T22:50:01.441Z,10.13
2022-11-06T22:53:23.057Z,9.90
2022-11-06T22:56:44.644Z,9.53
2022-11-06T23:00:08.551Z,9.17
2022-11-06T23:03:32.069Z,9.93
2022-11-06T23:06:53.479Z,9.40
2022-11-06T23:10:14.683Z,9.30
2022-11-06T23:13:36.515Z,9.23
2022-11-06T23:17:01.526Z,10.30
2022-11-06T23:20:25.827Z,10.10
2022-11-06T23:23:47.391Z,10.43
2022-11-06T23:27:09.619Z,9.50
2022-11-06T23:30:31.121Z,9.13
2022-11-06T23:33:52.613Z,9.83
2022-11-06T23:37:15.209Z,9.93
2022-11-06T23:40:36.761Z,9.67
2022-11-06T23:43:59.035Z,9.60
2022-11-06T23:47:19.503Z,9.23
2022-11-06T23:50:41.330Z,9.37
2022-11-06T23:54:03.928Z,8.87
2022-11-06T23:57:25.279Z,9.27
